<?xml version="1.0" encoding="UTF-8" standalone="no" ?>
<gpx xmlns="http://www.topografix.com/GPX/1/1" xmlns:xsi="http://www.w3.org/2001/XMLSchema-instance" xsi:schemaLocation="http://www.topografix.com/GPX/1/1 http://www.topografix.com/GPX/1/1/gpx.xsd" version="1.1" creator="VisuGPX - https://www.visugpx.com">
  <metadata>
    <name>Tracé Equipe_B-De B à H-16182845</name>
  </metadata>
  <trk>
    <name><![CDATA[Tracé Equipe_B-De B à H-16182845]]></name>
    <trkseg>
      <trkpt lat="48.39821" lon="2.63755">
        <ele>111</ele>
        <time>2023-02-27T12:44:29Z</time>
      </trkpt>
      <trkpt lat="48.39759" lon="2.63628">
        <ele>123</ele>
        <time>2023-02-27T12:44:53Z</time>
      </trkpt>
      <trkpt lat="48.39723" lon="2.63637">
        <ele>125</ele>
        <time>2023-02-27T12:45:02Z</time>
      </trkpt>
      <trkpt lat="48.39698" lon="2.63599">
        <ele>130</ele>
        <time>2023-02-27T12:45:10Z</time>
      </trkpt>
      <trkpt lat="48.39682" lon="2.63548">
        <ele>133</ele>
        <time>2023-02-27T12:45:19Z</time>
      </trkpt>
      <trkpt lat="48.39607" lon="2.63493">
        <ele>137</ele>
        <time>2023-02-27T12:45:38Z</time>
      </trkpt>
      <trkpt lat="48.39527" lon="2.63524">
        <ele>138</ele>
        <time>2023-02-27T12:45:58Z</time>
      </trkpt>
      <trkpt lat="48.3943" lon="2.63138">
        <ele>135</ele>
        <time>2023-02-27T12:47:02Z</time>
      </trkpt>
      <trkpt lat="48.39337" lon="2.63147">
        <ele>135</ele>
        <time>2023-02-27T12:47:24Z</time>
      </trkpt>
      <trkpt lat="48.39311" lon="2.63484">
        <ele>128</ele>
        <time>2023-02-27T12:48:16Z</time>
      </trkpt>
      <trkpt lat="48.39295" lon="2.63581">
        <ele>125</ele>
        <time>2023-02-27T12:48:32Z</time>
      </trkpt>
      <trkpt lat="48.39316" lon="2.63693">
        <ele>117</ele>
        <time>2023-02-27T12:48:50Z</time>
      </trkpt>
      <trkpt lat="48.39265" lon="2.63794">
        <ele>115</ele>
        <time>2023-02-27T12:49:09Z</time>
      </trkpt>
      <trkpt lat="48.39263" lon="2.64173">
        <ele>97</ele>
        <time>2023-02-27T12:50:08Z</time>
      </trkpt>
      <trkpt lat="48.39265" lon="2.64266">
        <ele>96</ele>
        <time>2023-02-27T12:50:23Z</time>
      </trkpt>
      <trkpt lat="48.39162" lon="2.65062">
        <ele>87</ele>
        <time>2023-02-27T12:52:28Z</time>
      </trkpt>
      <trkpt lat="48.39039" lon="2.65053">
        <ele>101</ele>
        <time>2023-02-27T12:52:57Z</time>
      </trkpt>
      <trkpt lat="48.39017" lon="2.64944">
        <ele>103</ele>
        <time>2023-02-27T12:53:15Z</time>
      </trkpt>
      <trkpt lat="48.38904" lon="2.64904">
        <ele>103</ele>
        <time>2023-02-27T12:53:42Z</time>
      </trkpt>
      <trkpt lat="48.3887" lon="2.64916">
        <ele>101</ele>
        <time>2023-02-27T12:53:50Z</time>
      </trkpt>
      <trkpt lat="48.38725" lon="2.65784">
        <ele>97</ele>
        <time>2023-02-27T12:56:09Z</time>
      </trkpt>
      <trkpt lat="48.38513" lon="2.65183">
        <ele>127</ele>
        <time>2023-02-27T12:57:54Z</time>
      </trkpt>
      <trkpt lat="48.38505" lon="2.64992">
        <ele>127</ele>
        <time>2023-02-27T12:58:24Z</time>
      </trkpt>
      <trkpt lat="48.38553" lon="2.64859">
        <ele>113</ele>
        <time>2023-02-27T12:58:48Z</time>
      </trkpt>
      <trkpt lat="48.38696" lon="2.65029">
        <ele>103</ele>
        <time>2023-02-27T12:59:30Z</time>
      </trkpt>
      <trkpt lat="48.38666" lon="2.64729">
        <ele>104</ele>
        <time>2023-02-27T13:00:17Z</time>
      </trkpt>
      <trkpt lat="48.38779" lon="2.64838">
        <ele>99</ele>
        <time>2023-02-27T13:00:48Z</time>
      </trkpt>
      <trkpt lat="48.3886" lon="2.64671">
        <ele>104</ele>
        <time>2023-02-27T13:01:21Z</time>
      </trkpt>
      <trkpt lat="48.38798" lon="2.64225">
        <ele>126</ele>
        <time>2023-02-27T13:02:31Z</time>
      </trkpt>
      <trkpt lat="48.38858" lon="2.64082">
        <ele>128</ele>
        <time>2023-02-27T13:02:57Z</time>
      </trkpt>
      <trkpt lat="48.38819" lon="2.63739">
        <ele>130</ele>
        <time>2023-02-27T13:03:51Z</time>
      </trkpt>
      <trkpt lat="48.38581" lon="2.63703">
        <ele>132</ele>
        <time>2023-02-27T13:04:47Z</time>
      </trkpt>
      <trkpt lat="48.38543" lon="2.63099">
        <ele>137</ele>
        <time>2023-02-27T13:06:21Z</time>
      </trkpt>
      <trkpt lat="48.3853" lon="2.63035">
        <ele>138</ele>
        <time>2023-02-27T13:06:32Z</time>
      </trkpt>
      <trkpt lat="48.38148" lon="2.61894">
        <ele>130</ele>
        <time>2023-02-27T13:09:50Z</time>
      </trkpt>
      <trkpt lat="48.38136" lon="2.61105">
        <ele>133</ele>
        <time>2023-02-27T13:11:52Z</time>
      </trkpt>
      <trkpt lat="48.37533" lon="2.60383">
        <ele>130</ele>
        <time>2023-02-27T13:14:52Z</time>
      </trkpt>
      <trkpt lat="48.37529" lon="2.59475">
        <ele>135</ele>
        <time>2023-02-27T13:17:13Z</time>
      </trkpt>
      <trkpt lat="48.38001" lon="2.59087">
        <ele>124</ele>
        <time>2023-02-27T13:19:19Z</time>
      </trkpt>
      <trkpt lat="48.37993" lon="2.596">
        <ele>127</ele>
        <time>2023-02-27T13:20:38Z</time>
      </trkpt>
      <trkpt lat="48.38066" lon="2.59622">
        <ele>127</ele>
        <time>2023-02-27T13:20:56Z</time>
      </trkpt>
      <trkpt lat="48.38398" lon="2.59178">
        <ele>124</ele>
        <time>2023-02-27T13:22:39Z</time>
      </trkpt>
      <trkpt lat="48.38467" lon="2.59111">
        <ele>119</ele>
        <time>2023-02-27T13:22:59Z</time>
      </trkpt>
      <trkpt lat="48.38465" lon="2.5896">
        <ele>111</ele>
        <time>2023-02-27T13:23:22Z</time>
      </trkpt>
      <trkpt lat="48.38422" lon="2.58853">
        <ele>107</ele>
        <time>2023-02-27T13:23:41Z</time>
      </trkpt>
      <trkpt lat="48.38364" lon="2.58774">
        <ele>103</ele>
        <time>2023-02-27T13:24:00Z</time>
      </trkpt>
      <trkpt lat="48.38483" lon="2.58802">
        <ele>104</ele>
        <time>2023-02-27T13:24:28Z</time>
      </trkpt>
      <trkpt lat="48.38595" lon="2.59058">
        <ele>115</ele>
        <time>2023-02-27T13:25:15Z</time>
      </trkpt>
      <trkpt lat="48.38667" lon="2.59201">
        <ele>118</ele>
        <time>2023-02-27T13:25:43Z</time>
      </trkpt>
      <trkpt lat="48.38623" lon="2.5928">
        <ele>121</ele>
        <time>2023-02-27T13:25:59Z</time>
      </trkpt>
      <trkpt lat="48.38666" lon="2.59451">
        <ele>123</ele>
        <time>2023-02-27T13:26:27Z</time>
      </trkpt>
      <trkpt lat="48.38638" lon="2.59928">
        <ele>126</ele>
        <time>2023-02-27T13:27:42Z</time>
      </trkpt>
      <trkpt lat="48.38706" lon="2.59894">
        <ele>125</ele>
        <time>2023-02-27T13:27:58Z</time>
      </trkpt>
      <trkpt lat="48.3873" lon="2.59906">
        <ele>125</ele>
        <time>2023-02-27T13:28:04Z</time>
      </trkpt>
      <trkpt lat="48.38752" lon="2.59898">
        <ele>126</ele>
        <time>2023-02-27T13:28:10Z</time>
      </trkpt>
      <trkpt lat="48.38801" lon="2.59805">
        <ele>125</ele>
        <time>2023-02-27T13:28:28Z</time>
      </trkpt>
      <trkpt lat="48.38884" lon="2.59779">
        <ele>125</ele>
        <time>2023-02-27T13:28:48Z</time>
      </trkpt>
      <trkpt lat="48.39319" lon="2.59867">
        <ele>108</ele>
        <time>2023-02-27T13:30:30Z</time>
      </trkpt>
      <trkpt lat="48.39492" lon="2.59971">
        <ele>91</ele>
        <time>2023-02-27T13:31:14Z</time>
      </trkpt>
      <trkpt lat="48.39509" lon="2.59972">
        <ele>90</ele>
        <time>2023-02-27T13:31:18Z</time>
      </trkpt>
      <trkpt lat="48.39528" lon="2.59833">
        <ele>90</ele>
        <time>2023-02-27T13:31:40Z</time>
      </trkpt>
      <trkpt lat="48.39587" lon="2.59387">
        <ele>88</ele>
        <time>2023-02-27T13:32:50Z</time>
      </trkpt>
      <trkpt lat="48.39606" lon="2.59305">
        <ele>89</ele>
        <time>2023-02-27T13:33:04Z</time>
      </trkpt>
      <trkpt lat="48.39639" lon="2.59036">
        <ele>87</ele>
        <time>2023-02-27T13:33:46Z</time>
      </trkpt>
      <trkpt lat="48.39649" lon="2.58871">
        <ele>87</ele>
        <time>2023-02-27T13:34:12Z</time>
      </trkpt>
    </trkseg>
  </trk>
</gpx>